createdAt,value
2024-03-14T00:03:49.947Z,8.2
2024-03-14T00:13:49.929Z,8.2
2024-03-14T00:23:49.963Z,8.2
2024-03-14T00:33:49.968Z,8.2
2024-03-14T00:43:49.330Z,8.1
2024-03-14T00:53:50.032Z,8.1
2024-03-14T01:03:49.890Z,8.1
2024-03-14T01:13:49.859Z,8.1
2024-03-14T01:23:49.887Z,8.1
2024-03-14T01:53:49.649Z,8.1
2024-03-14T02:03:49.617Z,8.1
2024-03-14T02:13:49.811Z,8.1
2024-03-14T02:23:49.821Z,8
2024-03-14T02:33:49.872Z,8
2024-03-14T02:43:49.786Z,8
2024-03-14T02:53:49.810Z,8
2024-03-14T03:03:49.760Z,8
2024-03-14T03:13:49.726Z,7.9
2024-03-14T03:23:49.825Z,7.9
2024-03-14T03:33:49.790Z,7.9
2024-03-14T03:43:49.727Z,7.8
2024-03-14T03:53:49.770Z,7.8
2024-03-14T04:03:49.636Z,7.7
2024-03-14T04:13:49.718Z,7.7
2024-03-14T04:23:49.541Z,7.7
2024-03-14T04:33:49.767Z,7.6
2024-03-14T04:53:49.488Z,7.6
2024-03-14T05:03:49.649Z,7.5
2024-03-14T05:13:49.632Z,7.5
2024-03-14T05:33:49.709Z,7.5
2024-03-14T05:43:49.416Z,7.4
2024-03-14T05:53:49.645Z,7.4
2024-03-14T06:03:49.520Z,7.4
2024-03-14T06:23:49.533Z,7.4
2024-03-14T06:33:49.399Z,7.4
2024-03-14T06:43:49.562Z,7.3
2024-03-14T06:53:49.576Z,7.3
2024-03-14T07:03:49.485Z,7.3
2024-03-14T07:13:49.532Z,7.3
2024-03-14T07:23:49.565Z,7.3
2024-03-14T07:33:49.867Z,7.3
2024-03-14T07:43:55.979Z,7.3
2024-03-14T07:53:49.594Z,7.3
2024-03-14T08:03:49.511Z,7.4
2024-03-14T08:13:49.478Z,7.4
2024-03-14T08:23:49.470Z,7.4
2024-03-14T08:33:49.548Z,7.4
2024-03-14T08:43:49.437Z,7.5
2024-03-14T08:53:49.392Z,7.5
2024-03-14T09:03:49.435Z,7.6
2024-03-14T09:13:49.402Z,7.7
2024-03-14T09:33:49.480Z,7.9
2024-03-14T09:43:49.472Z,8
2024-03-14T09:53:49.405Z,8.1
2024-03-14T10:03:49.260Z,8.2
2024-03-14T10:13:49.352Z,8.3
2024-03-14T10:53:49.287Z,8.5
2024-03-14T11:03:49.226Z,8.6
2024-03-14T11:23:49.247Z,8.7
2024-03-14T11:33:49.364Z,8.7
2024-03-14T11:43:49.234Z,8.8
2024-03-14T11:53:49.193Z,8.9
2024-03-14T12:03:49.272Z,8.9
2024-03-14T12:13:49.162Z,9
2024-03-14T12:23:49.190Z,9.1
2024-03-14T12:33:49.067Z,9.2
2024-03-14T12:43:49.244Z,9.3
2024-03-14T12:53:49.128Z,9.5
2024-03-14T13:03:49.094Z,9.6
2024-03-14T13:13:49.096Z,9.7
2024-03-14T13:33:49.093Z,9.8
2024-03-14T13:43:49.033Z,9.8
2024-03-14T13:53:49.048Z,9.8
2024-03-14T14:03:49.095Z,9.8
2024-03-14T14:13:48.934Z,9.8
2024-03-14T14:23:49.010Z,9.8
2024-03-14T14:33:49.005Z,9.8
2024-03-14T14:43:48.993Z,9.8
2024-03-14T15:03:49.333Z,9.7
2024-03-14T15:13:48.925Z,9.7
2024-03-14T15:23:48.912Z,9.7
2024-03-14T15:33:49.036Z,9.7
2024-03-14T15:43:48.903Z,9.7
2024-03-14T15:53:48.873Z,9.7
2024-03-14T16:03:48.920Z,9.7
2024-03-14T16:13:48.290Z,9.7
2024-03-14T16:23:48.833Z,9.7
2024-03-14T16:33:49.410Z,9.7
2024-03-14T16:43:48.818Z,9.6
2024-03-14T17:23:48.791Z,9.6
2024-03-14T17:33:48.687Z,9.5
2024-03-14T17:43:48.734Z,9.5
2024-03-14T18:03:48.743Z,9.5
2024-03-14T18:23:48.703Z,9.4
2024-03-14T18:33:48.278Z,9.4
2024-03-14T18:43:48.659Z,9.4
2024-03-14T18:53:48.662Z,9.4
2024-03-14T19:03:48.680Z,9.4
2024-03-14T19:13:48.461Z,9.3
2024-03-14T19:23:48.573Z,9.3
2024-03-14T19:53:48.590Z,9.3
2024-03-14T20:03:48.597Z,9.3
2024-03-14T20:13:48.579Z,9.2
2024-03-14T20:23:48.357Z,9.2
2024-03-14T20:33:48.744Z,9.2
2024-03-14T20:53:48.550Z,9.2
2024-03-14T21:03:48.993Z,9.2
2024-03-14T21:23:48.570Z,9.1
2024-03-14T21:33:48.456Z,9.1
2024-03-14T21:43:48.469Z,9.1
2024-03-14T21:53:48.404Z,9.1
2024-03-14T22:03:48.575Z,9
2024-03-14T22:13:48.682Z,9
2024-03-14T22:23:48.475Z,9
2024-03-14T22:33:48.494Z,9
2024-03-14T22:43:48.204Z,9
2024-03-14T22:53:48.406Z,9
2024-03-14T23:03:48.582Z,8.9
2024-03-14T23:13:48.492Z,8.9
2024-03-14T23:23:48.481Z,8.9
2024-03-14T23:33:48.356Z,8.9
2024-03-14T23:43:48.357Z,8.9
